sensor_id;sensor_type;location;lat;lon;timestamp;pressure;altitude;pressure_sealevel;temperature;humidity
20860;BME280;10590;48.154;11.514;2023-04-23T00:04:36;95129.94;;;14.35;56.20
20860;BME280;10590;48.154;11.514;2023-04-23T00:10:00;95117.56;;;14.30;55.79
20860;BME280;10590;48.154;11.514;2023-04-23T00:15:25;95112.13;;;14.27;55.77
20860;BME280;10590;48.154;11.514;2023-04-23T00:20:47;95109.44;;;14.43;55.66
20860;BME280;10590;48.154;11.514;2023-04-23T00:26:08;95096.84;;;14.47;56.17
20860;BME280;10590;48.154;11.514;2023-04-23T00:31:31;95093.75;;;14.45;57.07
20860;BME280;10590;48.154;11.514;2023-04-23T00:36:53;95091.94;;;14.33;56.01
20860;BME280;10590;48.154;11.514;2023-04-23T00:42:15;95092.34;;;14.16;56.62
20860;BME280;10590;48.154;11.514;2023-04-23T00:47:39;95094.03;;;14.24;56.43
20860;BME280;10590;48.154;11.514;2023-04-23T00:53:01;95064.56;;;14.08;57.30
20860;BME280;10590;48.154;11.514;2023-04-23T00:58:22;95084.00;;;14.21;57.66
20860;BME280;10590;48.154;11.514;2023-04-23T01:03:47;95083.94;;;14.17;57.73
20860;BME280;10590;48.154;11.514;2023-04-23T01:09:09;95082.16;;;14.06;58.41
20860;BME280;10590;48.154;11.514;2023-04-23T01:14:32;95079.69;;;14.16;58.30
20860;BME280;10590;48.154;11.514;2023-04-23T01:19:55;95083.94;;;14.17;58.67
20860;BME280;10590;48.154;11.514;2023-04-23T01:25:18;95060.66;;;13.55;61.00
20860;BME280;10590;48.154;11.514;2023-04-23T01:30:41;95079.19;;;13.28;62.96
20860;BME280;10590;48.154;11.514;2023-04-23T01:36:03;95070.56;;;13.86;61.65
20860;BME280;10590;48.154;11.514;2023-04-23T01:41:27;95077.41;;;13.83;60.11
20860;BME280;10590;48.154;11.514;2023-04-23T01:46:48;95071.97;;;13.95;60.89
20860;BME280;10590;48.154;11.514;2023-04-23T01:52:10;95080.00;;;13.95;61.35
20860;BME280;10590;48.154;11.514;2023-04-23T01:57:33;95074.22;;;13.78;61.74
20860;BME280;10590;48.154;11.514;2023-04-23T02:02:55;95087.97;;;13.76;61.98
20860;BME280;10590;48.154;11.514;2023-04-23T02:08:17;95079.25;;;12.88;66.82
20860;BME280;10590;48.154;11.514;2023-04-23T02:13:39;95093.34;;;13.29;64.68
20860;BME280;10590;48.154;11.514;2023-04-23T02:19:01;95090.63;;;13.13;67.62
20860;BME280;10590;48.154;11.514;2023-04-23T02:24:23;95094.13;;;13.29;67.73
20860;BME280;10590;48.154;11.514;2023-04-23T02:29:47;95097.06;;;13.24;67.24
20860;BME280;10590;48.154;11.514;2023-04-23T02:35:09;95086.53;;;13.31;66.71
20860;BME280;10590;48.154;11.514;2023-04-23T02:40:31;95097.41;;;13.38;65.85
20860;BME280;10590;48.154;11.514;2023-04-23T02:45:54;95098.03;;;13.32;64.39
20860;BME280;10590;48.154;11.514;2023-04-23T02:51:16;95096.91;;;13.33;65.02
20860;BME280;10590;48.154;11.514;2023-04-23T02:56:38;95095.00;;;13.33;65.41
20860;BME280;10590;48.154;11.514;2023-04-23T03:02:01;95099.56;;;13.33;65.87
20860;BME280;10590;48.154;11.514;2023-04-23T03:07:22;95100.44;;;13.21;65.48
20860;BME280;10590;48.154;11.514;2023-04-23T03:12:46;95092.75;;;13.20;65.01
20860;BME280;10590;48.154;11.514;2023-04-23T03:18:09;95097.50;;;13.26;64.69
20860;BME280;10590;48.154;11.514;2023-04-23T03:23:31;95098.28;;;13.43;64.56
20860;BME280;10590;48.154;11.514;2023-04-23T03:28:52;95103.03;;;13.33;63.76
20860;BME280;10590;48.154;11.514;2023-04-23T03:34:15;95101.56;;;13.20;65.15
20860;BME280;10590;48.154;11.514;2023-04-23T03:39:37;95112.50;;;13.15;65.74
20860;BME280;10590;48.154;11.514;2023-04-23T03:44:59;95112.34;;;13.24;65.83
20860;BME280;10590;48.154;11.514;2023-04-23T03:50:22;95120.03;;;12.97;66.02
20860;BME280;10590;48.154;11.514;2023-04-23T03:55:44;95126.41;;;12.93;66.14
20860;BME280;10590;48.154;11.514;2023-04-23T04:01:05;95137.78;;;13.02;65.60
20860;BME280;10590;48.154;11.514;2023-04-23T04:06:29;95133.75;;;13.08;65.00
20860;BME280;10590;48.154;11.514;2023-04-23T04:11:51;95140.41;;;13.14;65.37
20860;BME280;10590;48.154;11.514;2023-04-23T04:17:13;95143.91;;;13.02;66.05
20860;BME280;10590;48.154;11.514;2023-04-23T04:22:36;95145.94;;;12.65;68.60
20860;BME280;10590;48.154;11.514;2023-04-23T04:27:58;95149.25;;;12.22;71.75
20860;BME280;10590;48.154;11.514;2023-04-23T04:33:20;95163.19;;;11.91;75.71
20860;BME280;10590;48.154;11.514;2023-04-23T04:38:42;95152.34;;;11.63;77.59
20860;BME280;10590;48.154;11.514;2023-04-23T04:44:04;95163.34;;;11.62;78.61
20860;BME280;10590;48.154;11.514;2023-04-23T04:49:26;95168.38;;;11.63;79.49
20860;BME280;10590;48.154;11.514;2023-04-23T04:54:49;95176.50;;;11.67;79.65
20860;BME280;10590;48.154;11.514;2023-04-23T05:00:22;95182.50;;;11.52;80.32
20860;BME280;10590;48.154;11.514;2023-04-23T05:05:46;95182.72;;;11.46;80.87
20860;BME280;10590;48.154;11.514;2023-04-23T05:11:09;95186.72;;;11.53;80.39
20860;BME280;10590;48.154;11.514;2023-04-23T05:16:31;95203.78;;;11.60;80.42
20860;BME280;10590;48.154;11.514;2023-04-23T05:21:53;95208.34;;;11.60;80.70
20860;BME280;10590;48.154;11.514;2023-04-23T05:27:16;95203.00;;;11.60;81.00
20860;BME280;10590;48.154;11.514;2023-04-23T05:32:38;95213.22;;;11.58;80.89
20860;BME280;10590;48.154;11.514;2023-04-23T05:37:59;95212.78;;;11.56;80.53
20860;BME280;10590;48.154;11.514;2023-04-23T05:43:23;95221.69;;;11.60;81.20
20860;BME280;10590;48.154;11.514;2023-04-23T05:48:44;95219.75;;;11.36;81.92
20860;BME280;10590;48.154;11.514;2023-04-23T05:54:06;95217.34;;;11.22;82.77
20860;BME280;10590;48.154;11.514;2023-04-23T05:59:29;95222.63;;;11.10;83.83
20860;BME280;10590;48.154;11.514;2023-04-23T06:04:51;95227.97;;;11.31;83.59
20860;BME280;10590;48.154;11.514;2023-04-23T06:10:13;95229.78;;;11.18;84.06
20860;BME280;10590;48.154;11.514;2023-04-23T06:15:36;95229.00;;;11.17;84.48
20860;BME280;10590;48.154;11.514;2023-04-23T06:20:57;95222.88;;;11.17;84.48
20860;BME280;10590;48.154;11.514;2023-04-23T06:26:23;95208.31;;;10.94;85.44
20860;BME280;10590;48.154;11.514;2023-04-23T06:31:46;95225.25;;;10.98;85.89
20860;BME280;10590;48.154;11.514;2023-04-23T06:37:08;95237.66;;;11.14;85.50
20860;BME280;10590;48.154;11.514;2023-04-23T06:42:29;95241.69;;;11.21;85.40
20860;BME280;10590;48.154;11.514;2023-04-23T06:47:52;95231.41;;;11.31;84.62
20860;BME280;10590;48.154;11.514;2023-04-23T06:53:14;95229.13;;;11.42;84.26
20860;BME280;10590;48.154;11.514;2023-04-23T06:58:36;95232.94;;;11.53;84.31
20860;BME280;10590;48.154;11.514;2023-04-23T07:03:59;95217.69;;;11.54;83.86
20860;BME280;10590;48.154;11.514;2023-04-23T07:09:21;95220.66;;;11.40;85.22
20860;BME280;10590;48.154;11.514;2023-04-23T07:14:43;95206.13;;;11.62;84.23
20860;BME280;10590;48.154;11.514;2023-04-23T07:20:07;95210.75;;;11.98;82.61
20860;BME280;10590;48.154;11.514;2023-04-23T07:25:29;95223.25;;;12.18;81.75
20860;BME280;10590;48.154;11.514;2023-04-23T07:30:51;95209.78;;;12.15;82.26
20860;BME280;10590;48.154;11.514;2023-04-23T07:36:14;95216.72;;;11.70;83.60
20860;BME280;10590;48.154;11.514;2023-04-23T07:41:36;95214.38;;;11.69;83.72
20860;BME280;10590;48.154;11.514;2023-04-23T07:46:58;95225.06;;;11.69;83.97
20860;BME280;10590;48.154;11.514;2023-04-23T07:52:21;95211.88;;;11.52;83.82
20860;BME280;10590;48.154;11.514;2023-04-23T07:57:43;95219.25;;;11.67;83.73
20860;BME280;10590;48.154;11.514;2023-04-23T08:03:05;95236.38;;;11.54;83.93
20860;BME280;10590;48.154;11.514;2023-04-23T08:08:28;95227.84;;;11.72;83.72
20860;BME280;10590;48.154;11.514;2023-04-23T08:13:50;95214.28;;;11.77;84.08
20860;BME280;10590;48.154;11.514;2023-04-23T08:19:11;95212.88;;;12.04;82.84
20860;BME280;10590;48.154;11.514;2023-04-23T08:24:34;95215.34;;;12.34;80.54
20860;BME280;10590;48.154;11.514;2023-04-23T08:29:57;95198.81;;;13.08;78.12
20860;BME280;10590;48.154;11.514;2023-04-23T08:35:18;95196.69;;;13.58;74.36
20860;BME280;10590;48.154;11.514;2023-04-23T08:40:42;95187.06;;;15.25;68.30
20860;BME280;10590;48.154;11.514;2023-04-23T08:46:10;95190.75;;;14.27;70.85
20860;BME280;10590;48.154;11.514;2023-04-23T08:51:36;95185.47;;;15.01;70.29
20860;BME280;10590;48.154;11.514;2023-04-23T08:56:59;95184.59;;;13.80;73.46
20860;BME280;10590;48.154;11.514;2023-04-23T09:02:21;95181.94;;;14.11;70.21
20860;BME280;10590;48.154;11.514;2023-04-23T09:07:44;95173.25;;;14.69;69.48
20860;BME280;10590;48.154;11.514;2023-04-23T09:13:07;95169.84;;;15.68;66.24
20860;BME280;10590;48.154;11.514;2023-04-23T09:18:29;95171.75;;;15.06;70.11
20860;BME280;10590;48.154;11.514;2023-04-23T09:23:51;95172.41;;;15.42;66.21
20860;BME280;10590;48.154;11.514;2023-04-23T09:29:14;95170.84;;;15.41;65.11
20860;BME280;10590;48.154;11.514;2023-04-23T09:34:38;95174.50;;;14.90;67.36
20860;BME280;10590;48.154;11.514;2023-04-23T09:40:01;95164.91;;;14.74;67.14
20860;BME280;10590;48.154;11.514;2023-04-23T09:45:30;95157.97;;;15.92;62.66
20860;BME280;10590;48.154;11.514;2023-04-23T09:50:54;95144.38;;;15.43;64.58
20860;BME280;10590;48.154;11.514;2023-04-23T09:56:18;95143.53;;;15.58;63.79
20860;BME280;10590;48.154;11.514;2023-04-23T10:01:43;95144.47;;;15.66;64.11
20860;BME280;10590;48.154;11.514;2023-04-23T10:07:06;95124.66;;;14.93;65.07
20860;BME280;10590;48.154;11.514;2023-04-23T10:12:33;95132.84;;;15.19;65.66
20860;BME280;10590;48.154;11.514;2023-04-23T10:17:57;95123.34;;;16.17;61.35
20860;BME280;10590;48.154;11.514;2023-04-23T10:23:20;95123.69;;;15.89;61.56
20860;BME280;10590;48.154;11.514;2023-04-23T10:28:46;95120.78;;;15.33;62.19
20860;BME280;10590;48.154;11.514;2023-04-23T10:34:10;95109.34;;;15.81;61.96
20860;BME280;10590;48.154;11.514;2023-04-23T10:39:33;95118.72;;;16.44;61.65
20860;BME280;10590;48.154;11.514;2023-04-23T10:44:55;95103.28;;;16.41;60.29
20860;BME280;10590;48.154;11.514;2023-04-23T10:50:20;95102.22;;;17.87;56.62
20860;BME280;10590;48.154;11.514;2023-04-23T10:55:43;95091.06;;;18.46;53.38
20860;BME280;10590;48.154;11.514;2023-04-23T11:01:05;95082.22;;;20.04;47.50
20860;BME280;10590;48.154;11.514;2023-04-23T11:06:50;95065.34;;;20.94;46.60
20860;BME280;10590;48.154;11.514;2023-04-23T11:12:31;95054.19;;;18.83;52.03
20860;BME280;10590;48.154;11.514;2023-04-23T11:17:59;95042.44;;;22.51;42.30
20860;BME280;10590;48.154;11.514;2023-04-23T11:23:30;95040.44;;;19.91;47.66
20860;BME280;10590;48.154;11.514;2023-04-23T11:28:53;95035.00;;;19.91;47.17
20860;BME280;10590;48.154;11.514;2023-04-23T11:34:15;95033.84;;;22.90;41.38
20860;BME280;10590;48.154;11.514;2023-04-23T11:39:39;95033.88;;;19.70;45.21
20860;BME280;10590;48.154;11.514;2023-04-23T11:45:01;95025.38;;;19.68;48.07
20860;BME280;10590;48.154;11.514;2023-04-23T11:50:25;95021.75;;;18.90;48.87
20860;BME280;10590;48.154;11.514;2023-04-23T11:55:49;95000.00;;;20.67;43.13
20860;BME280;10590;48.154;11.514;2023-04-23T12:01:10;94987.03;;;21.59;41.52
20860;BME280;10590;48.154;11.514;2023-04-23T12:06:32;94980.50;;;19.11;47.82
20860;BME280;10590;48.154;11.514;2023-04-23T12:11:57;94971.47;;;18.60;49.73
20860;BME280;10590;48.154;11.514;2023-04-23T12:17:19;94962.22;;;21.98;40.77
20860;BME280;10590;48.154;11.514;2023-04-23T12:22:41;94960.84;;;18.09;49.43
20860;BME280;10590;48.154;11.514;2023-04-23T12:28:05;94947.22;;;18.85;49.00
20860;BME280;10590;48.154;11.514;2023-04-23T12:33:28;94944.53;;;23.12;38.53
20860;BME280;10590;48.154;11.514;2023-04-23T12:38:50;94944.50;;;18.85;48.12
20860;BME280;10590;48.154;11.514;2023-04-23T12:44:13;94928.31;;;20.72;43.01
20860;BME280;10590;48.154;11.514;2023-04-23T12:49:36;94920.38;;;21.03;41.50
20860;BME280;10590;48.154;11.514;2023-04-23T12:54:58;94907.75;;;22.12;39.84
20860;BME280;10590;48.154;11.514;2023-04-23T13:00:22;94917.47;;;20.72;43.60
20860;BME280;10590;48.154;11.514;2023-04-23T13:05:44;94910.06;;;18.46;50.05
20860;BME280;10590;48.154;11.514;2023-04-23T13:11:05;94900.75;;;18.33;49.60
20860;BME280;10590;48.154;11.514;2023-04-23T13:16:29;94878.41;;;18.51;48.55
20860;BME280;10590;48.154;11.514;2023-04-23T13:21:50;94881.09;;;18.40;49.50
20860;BME280;10590;48.154;11.514;2023-04-23T13:27:13;94864.59;;;19.16;46.41
20860;BME280;10590;48.154;11.514;2023-04-23T13:32:36;94843.69;;;19.31;47.15
20860;BME280;10590;48.154;11.514;2023-04-23T13:37:58;94836.69;;;19.51;48.07
20860;BME280;10590;48.154;11.514;2023-04-23T13:43:19;94830.13;;;18.21;48.52
20860;BME280;10590;48.154;11.514;2023-04-23T13:48:43;94811.25;;;18.31;49.51
20860;BME280;10590;48.154;11.514;2023-04-23T13:54:05;94804.69;;;18.61;48.93
20860;BME280;10590;48.154;11.514;2023-04-23T13:59:27;94795.78;;;18.21;50.62
20860;BME280;10590;48.154;11.514;2023-04-23T14:04:50;94795.81;;;18.60;48.61
20860;BME280;10590;48.154;11.514;2023-04-23T14:10:11;94798.56;;;18.67;48.06
20860;BME280;10590;48.154;11.514;2023-04-23T14:15:35;94796.59;;;18.82;48.67
20860;BME280;10590;48.154;11.514;2023-04-23T14:20:59;94805.47;;;18.51;49.54
20860;BME280;10590;48.154;11.514;2023-04-23T14:26:33;94796.41;;;17.68;51.31
20860;BME280;10590;48.154;11.514;2023-04-23T14:31:55;94791.84;;;17.87;50.43
20860;BME280;10590;48.154;11.514;2023-04-23T14:37:18;94789.09;;;17.72;52.22
20860;BME280;10590;48.154;11.514;2023-04-23T14:42:40;94784.94;;;17.96;52.66
20860;BME280;10590;48.154;11.514;2023-04-23T14:48:02;94759.53;;;18.29;51.29
20860;BME280;10590;48.154;11.514;2023-04-23T14:53:26;94754.16;;;18.65;51.33
20860;BME280;10590;48.154;11.514;2023-04-23T14:58:48;94755.41;;;19.76;48.11
20860;BME280;10590;48.154;11.514;2023-04-23T15:04:10;94760.28;;;18.19;49.99
20860;BME280;10590;48.154;11.514;2023-04-23T15:09:33;94751.06;;;18.41;51.16
20860;BME280;10590;48.154;11.514;2023-04-23T15:14:55;94731.75;;;18.32;50.17
20860;BME280;10590;48.154;11.514;2023-04-23T15:20:17;94755.22;;;17.96;51.49
20860;BME280;10590;48.154;11.514;2023-04-23T15:25:40;94752.97;;;18.37;51.60
20860;BME280;10590;48.154;11.514;2023-04-23T15:31:01;94741.72;;;17.86;52.74
20860;BME280;10590;48.154;11.514;2023-04-23T15:36:23;94730.16;;;19.09;50.19
20860;BME280;10590;48.154;11.514;2023-04-23T15:41:46;94725.53;;;18.00;52.52
20860;BME280;10590;48.154;11.514;2023-04-23T15:47:08;94717.31;;;17.43;54.29
20860;BME280;10590;48.154;11.514;2023-04-23T15:52:29;94724.44;;;18.65;51.30
20860;BME280;10590;48.154;11.514;2023-04-23T15:57:52;94713.63;;;18.22;52.19
20860;BME280;10590;48.154;11.514;2023-04-23T16:03:14;94708.50;;;19.13;50.33
20860;BME280;10590;48.154;11.514;2023-04-23T16:08:38;94715.56;;;18.25;52.81
20860;BME280;10590;48.154;11.514;2023-04-23T16:14:02;94714.47;;;17.14;55.96
20860;BME280;10590;48.154;11.514;2023-04-23T16:19:24;94696.03;;;17.27;56.09
20860;BME280;10590;48.154;11.514;2023-04-23T16:24:47;94693.56;;;16.90;57.13
20860;BME280;10590;48.154;11.514;2023-04-23T16:30:11;94694.84;;;17.17;56.64
20860;BME280;10590;48.154;11.514;2023-04-23T16:35:32;94686.66;;;16.96;57.45
20860;BME280;10590;48.154;11.514;2023-04-23T16:40:54;94696.31;;;16.42;59.35
20860;BME280;10590;48.154;11.514;2023-04-23T16:46:17;94687.00;;;16.29;61.13
20860;BME280;10590;48.154;11.514;2023-04-23T16:51:39;94685.44;;;16.28;62.08
20860;BME280;10590;48.154;11.514;2023-04-23T16:57:00;94677.63;;;16.09;61.60
20860;BME280;10590;48.154;11.514;2023-04-23T17:02:24;94670.53;;;15.86;62.33
20860;BME280;10590;48.154;11.514;2023-04-23T17:07:46;94663.50;;;15.75;62.76
20860;BME280;10590;48.154;11.514;2023-04-23T17:13:08;94660.03;;;15.74;62.96
20860;BME280;10590;48.154;11.514;2023-04-23T17:18:31;94641.97;;;15.71;61.40
20860;BME280;10590;48.154;11.514;2023-04-23T17:23:55;94636.59;;;15.75;61.44
20860;BME280;10590;48.154;11.514;2023-04-23T17:29:39;94631.13;;;15.64;60.69
20860;BME280;10590;48.154;11.514;2023-04-23T17:35:05;94639.97;;;15.65;60.09
20860;BME280;10590;48.154;11.514;2023-04-23T17:40:27;94639.97;;;15.65;60.56
20860;BME280;10590;48.154;11.514;2023-04-23T17:45:49;94637.88;;;15.51;61.08
20860;BME280;10590;48.154;11.514;2023-04-23T17:51:12;94641.94;;;15.68;60.60
20860;BME280;10590;48.154;11.514;2023-04-23T17:56:34;94638.88;;;15.69;60.65
20860;BME280;10590;48.154;11.514;2023-04-23T18:01:55;94631.72;;;15.50;61.32
20860;BME280;10590;48.154;11.514;2023-04-23T18:07:19;94636.91;;;15.29;62.02
20860;BME280;10590;48.154;11.514;2023-04-23T18:12:40;94636.31;;;15.46;62.33
20860;BME280;10590;48.154;11.514;2023-04-23T18:18:02;94649.69;;;15.43;62.16
20860;BME280;10590;48.154;11.514;2023-04-23T18:23:27;94634.84;;;15.15;63.35
20860;BME280;10590;48.154;11.514;2023-04-23T18:28:48;94621.75;;;15.51;62.12
20860;BME280;10590;48.154;11.514;2023-04-23T18:34:15;94621.28;;;15.42;62.60
20860;BME280;10590;48.154;11.514;2023-04-23T18:39:40;94631.13;;;15.27;63.83
20860;BME280;10590;48.154;11.514;2023-04-23T18:45:02;94679.78;;;15.18;65.20
20860;BME280;10590;48.154;11.514;2023-04-23T18:50:36;94778.09;;;14.66;66.69
20860;BME280;10590;48.154;11.514;2023-04-23T18:56:03;94811.41;;;12.85;59.04
20860;BME280;10590;48.154;11.514;2023-04-23T19:01:24;94817.72;;;11.42;71.34
20860;BME280;10590;48.154;11.514;2023-04-23T19:06:47;94829.63;;;10.80;77.39
20860;BME280;10590;48.154;11.514;2023-04-23T19:12:10;94837.31;;;10.57;78.94
20860;BME280;10590;48.154;11.514;2023-04-23T19:17:32;94842.97;;;10.43;79.96
20860;BME280;10590;48.154;11.514;2023-04-23T19:22:54;94845.22;;;10.53;80.18
20860;BME280;10590;48.154;11.514;2023-04-23T19:28:18;94839.31;;;10.48;81.52
20860;BME280;10590;48.154;11.514;2023-04-23T19:33:40;94839.97;;;10.45;81.50
20860;BME280;10590;48.154;11.514;2023-04-23T19:39:04;94835.94;;;10.39;81.97
20860;BME280;10590;48.154;11.514;2023-04-23T19:44:27;94851.19;;;10.38;83.26
20860;BME280;10590;48.154;11.514;2023-04-23T19:49:49;94857.00;;;10.52;82.97
20860;BME280;10590;48.154;11.514;2023-04-23T19:55:11;94862.22;;;10.49;83.98
20860;BME280;10590;48.154;11.514;2023-04-23T20:00:34;94863.78;;;10.62;84.66
20860;BME280;10590;48.154;11.514;2023-04-23T20:05:58;94861.31;;;10.45;85.26
20860;BME280;10590;48.154;11.514;2023-04-23T20:11:20;94866.09;;;10.51;86.33
20860;BME280;10590;48.154;11.514;2023-04-23T20:16:43;94865.31;;;10.51;86.70
20860;BME280;10590;48.154;11.514;2023-04-23T20:22:05;94843.44;;;10.45;86.91
20860;BME280;10590;48.154;11.514;2023-04-23T20:27:27;94837.75;;;10.47;87.51
20860;BME280;10590;48.154;11.514;2023-04-23T20:32:50;94831.31;;;10.60;86.82
20860;BME280;10590;48.154;11.514;2023-04-23T20:38:13;94838.44;;;10.56;86.53
20860;BME280;10590;48.154;11.514;2023-04-23T20:43:42;94846.22;;;10.61;87.25
20860;BME280;10590;48.154;11.514;2023-04-23T20:49:05;94857.78;;;10.53;87.78
20860;BME280;10590;48.154;11.514;2023-04-23T20:54:26;94861.72;;;10.35;88.77
20860;BME280;10590;48.154;11.514;2023-04-23T20:59:49;94858.41;;;10.38;88.43
20860;BME280;10590;48.154;11.514;2023-04-23T21:05:12;94860.09;;;10.42;89.60
20860;BME280;10590;48.154;11.514;2023-04-23T21:10:36;94848.38;;;10.23;90.18
20860;BME280;10590;48.154;11.514;2023-04-23T21:15:58;94837.06;;;10.38;90.24
20860;BME280;10590;48.154;11.514;2023-04-23T21:21:21;94859.06;;;10.35;90.03
20860;BME280;10590;48.154;11.514;2023-04-23T21:26:47;94849.00;;;10.19;90.19
20860;BME280;10590;48.154;11.514;2023-04-23T21:32:08;94854.16;;;10.37;89.86
20860;BME280;10590;48.154;11.514;2023-04-23T21:37:31;94862.00;;;10.42;89.79
20860;BME280;10590;48.154;11.514;2023-04-23T21:42:53;94862.50;;;10.35;89.58
20860;BME280;10590;48.154;11.514;2023-04-23T21:48:15;94860.88;;;10.43;89.60
20860;BME280;10590;48.154;11.514;2023-04-23T21:53:38;94866.56;;;10.53;89.19
20860;BME280;10590;48.154;11.514;2023-04-23T21:58:59;94854.44;;;10.44;89.27
20860;BME280;10590;48.154;11.514;2023-04-23T22:04:21;94853.53;;;10.52;87.41
20860;BME280;10590;48.154;11.514;2023-04-23T22:09:48;94860.88;;;10.55;87.65
20860;BME280;10590;48.154;11.514;2023-04-23T22:15:12;94867.88;;;10.60;87.53
20860;BME280;10590;48.154;11.514;2023-04-23T22:20:36;94863.09;;;10.65;87.59
20860;BME280;10590;48.154;11.514;2023-04-23T22:25:59;94848.22;;;10.52;86.41
20860;BME280;10590;48.154;11.514;2023-04-23T22:31:21;94864.00;;;10.57;86.27
20860;BME280;10590;48.154;11.514;2023-04-23T22:36:44;94863.09;;;10.53;86.68
20860;BME280;10590;48.154;11.514;2023-04-23T22:42:09;94859.09;;;10.47;86.76
20860;BME280;10590;48.154;11.514;2023-04-23T22:47:30;94865.75;;;10.41;85.64
20860;BME280;10590;48.154;11.514;2023-04-23T22:52:52;94867.50;;;10.37;85.94
20860;BME280;10590;48.154;11.514;2023-04-23T22:58:15;94862.06;;;10.33;85.78
20860;BME280;10590;48.154;11.514;2023-04-23T23:03:37;94862.59;;;10.27;84.50
20860;BME280;10590;48.154;11.514;2023-04-23T23:08:58;94860.56;;;10.11;85.72
20860;BME280;10590;48.154;11.514;2023-04-23T23:14:21;94858.31;;;10.01;85.70
20860;BME280;10590;48.154;11.514;2023-04-23T23:19:44;94860.53;;;9.99;85.48
20860;BME280;10590;48.154;11.514;2023-04-23T23:25:06;94856.94;;;9.83;86.71
20860;BME280;10590;48.154;11.514;2023-04-23T23:30:31;94843.28;;;9.84;87.08
20860;BME280;10590;48.154;11.514;2023-04-23T23:35:52;94841.88;;;9.66;87.07
20860;BME280;10590;48.154;11.514;2023-04-23T23:41:14;94835.94;;;9.81;87.15
20860;BME280;10590;48.154;11.514;2023-04-23T23:46:37;94827.50;;;9.79;87.02
20860;BME280;10590;48.154;11.514;2023-04-23T23:51:59;94827.81;;;9.78;86.91
20860;BME280;10590;48.154;11.514;2023-04-23T23:57:21;94812.91;;;9.65;87.70
